Time;durP1;ratioP1;P1;durP2;ratioP2;P2;SDS_P1;SDS_P2;PMS_P1;PMS_P2;Temp;Humidity;BMP_temperature;BMP_pressure;BME280_temperature;BME280_humidity;BME280_pressure;Samples;Min_cycle;Max_cycle;Signal;HPM_P1;HPM_P2
2022/03/10 00:00:42;;;;;;;6.82;1.90;;;;;;;12.87;69.84;101262.81;7389058;19;20412;-78
2022/03/10 00:03:09;;;;;;;5.20;2.13;;;;;;;12.83;69.44;101264.94;7391048;19;20014;-79
2022/03/10 00:05:37;;;;;;;5.68;2.22;;;;;;;12.84;70.18;101273.69;7391687;19;20018;-78
2022/03/10 00:08:05;;;;;;;8.40;1.70;;;;;;;12.83;69.75;101272.88;7386989;19;20033;-78
2022/03/10 00:10:32;;;;;;;6.47;2.15;;;;;;;12.82;69.50;101273.00;7392141;19;20074;-79
2022/03/10 00:13:03;;;;;;;7.80;2.05;;;;;;;12.84;70.86;101273.69;7390584;19;20362;-78
2022/03/10 00:15:30;;;;;;;6.97;1.60;;;;;;;12.81;69.91;101274.00;7388560;19;20002;-78
2022/03/10 00:18:01;;;;;;;7.72;3.97;;;;;;;12.79;70.61;101276.81;7384720;19;20364;-78
2022/03/10 00:20:28;;;;;;;4.65;1.45;;;;;;;12.80;70.63;101274.97;7387430;19;20376;-78
2022/03/10 00:22:56;;;;;;;5.15;1.40;;;;;;;12.79;69.97;101279.44;7386250;19;20036;-77
2022/03/10 00:25:33;;;;;;;5.70;1.45;;;;;;;12.79;70.21;101273.34;7385457;19;20011;-78
2022/03/10 00:28:00;;;;;;;4.78;1.40;;;;;;;12.73;69.68;101273.94;7384591;19;20014;-78
2022/03/10 00:30:27;;;;;;;7.10;1.92;;;;;;;12.73;70.11;101272.13;7386985;19;20498;-78
2022/03/10 00:32:54;;;;;;;5.55;2.05;;;;;;;12.73;70.48;101280.06;7384075;19;20381;-78
2022/03/10 00:35:23;;;;;;;6.15;2.00;;;;;;;12.71;70.22;101281.19;7388027;19;20074;-78
2022/03/10 00:37:56;;;;;;;4.93;1.70;;;;;;;12.68;70.68;101284.16;7387051;19;20079;-77
2022/03/10 00:40:23;;;;;;;8.90;1.85;;;;;;;12.66;70.45;101283.47;7385844;19;20320;-77
2022/03/10 00:42:50;;;;;;;7.25;2.70;;;;;;;12.65;71.01;101282.63;7382021;19;20462;-78
2022/03/10 00:45:18;;;;;;;5.40;1.67;;;;;;;12.64;70.35;101288.91;7387877;19;20071;-78
2022/03/10 00:47:45;;;;;;;4.93;2.20;;;;;;;12.65;70.78;101295.84;7385287;19;20519;-78
2022/03/10 00:50:12;;;;;;;4.30;1.55;;;;;;;12.62;70.67;101285.59;7388113;19;20011;-78
2022/03/10 00:52:41;;;;;;;3.95;1.20;;;;;;;12.59;69.49;101287.72;7382686;19;20018;-78
2022/03/10 00:55:09;;;;;;;5.70;1.88;;;;;;;12.62;70.59;101290.88;7387015;19;20158;-78
2022/03/10 00:57:36;;;;;;;4.68;1.90;;;;;;;12.60;69.66;101294.63;7384801;19;20091;-77
2022/03/10 01:00:05;;;;;;;7.15;1.50;;;;;;;12.62;69.52;101297.97;7385156;19;20011;-78
2022/03/10 01:02:34;;;;;;;8.30;4.53;;;;;;;12.64;70.19;101296.84;7384367;19;20014;-77
2022/03/10 01:05:02;;;;;;;4.60;1.67;;;;;;;12.65;70.23;101289.72;7384178;19;20142;-78
2022/03/10 01:07:29;;;;;;;4.32;2.33;;;;;;;12.66;70.77;101304.59;7388398;19;20359;-78
2022/03/10 01:09:57;;;;;;;6.68;1.85;;;;;;;12.62;69.90;101298.78;7387792;19;20017;-79
2022/03/10 01:12:24;;;;;;;4.13;1.85;;;;;;;12.65;69.69;101295.00;7385290;19;20042;-77
2022/03/10 01:14:53;;;;;;;6.32;2.13;;;;;;;12.67;70.45;101298.31;7382782;19;20696;-78
2022/03/10 01:17:20;;;;;;;6.13;1.77;;;;;;;12.64;69.32;101304.75;7386844;19;20031;-77
2022/03/10 01:19:48;;;;;;;3.85;1.42;;;;;;;12.65;69.08;101297.63;7382462;19;20334;-77
2022/03/10 01:22:15;;;;;;;7.97;1.83;;;;;;;12.63;69.57;101297.81;7383381;19;20351;-77
2022/03/10 01:24:42;;;;;;;3.90;1.27;;;;;;;12.62;69.26;101293.50;7382916;19;20424;-78
2022/03/10 01:27:10;;;;;;;5.40;2.10;;;;;;;12.62;69.34;101300.59;7385038;19;20031;-77
2022/03/10 01:29:37;;;;;;;5.75;1.20;;;;;;;12.62;68.73;101301.44;7384375;19;20489;-77
2022/03/10 01:32:05;;;;;;;7.85;1.90;;;;;;;12.64;69.40;101301.28;7386202;19;20459;-78
2022/03/10 01:34:34;;;;;;;2.97;1.30;;;;;;;12.61;69.29;101306.84;7383917;19;20021;-77
2022/03/10 01:37:01;;;;;;;7.70;2.10;;;;;;;12.58;69.31;101300.09;7381394;19;20351;-77
2022/03/10 01:39:28;;;;;;;5.97;2.05;;;;;;;12.61;69.19;101297.13;7381600;19;20006;-78
2022/03/10 01:41:59;;;;;;;6.97;1.90;;;;;;;12.61;68.79;101305.06;7386155;19;20459;-77
2022/03/10 01:44:27;;;;;;;8.18;1.58;;;;;;;12.62;68.69;101303.25;7381533;19;20351;-78
2022/03/10 01:46:54;;;;;;;6.03;2.15;;;;;;;12.59;69.37;101293.84;7385128;19;20452;-77
2022/03/10 01:49:21;;;;;;;6.97;2.40;;;;;;;12.59;69.29;101303.56;7381591;19;20018;-78
2022/03/10 01:51:58;;;;;;;4.68;2.00;;;;;;;12.60;69.38;101294.63;7383330;19;20031;-78
2022/03/10 01:54:25;;;;;;;8.93;2.20;;;;;;;12.59;68.85;101296.47;7382849;19;20090;-78
2022/03/10 01:56:53;;;;;;;7.13;2.83;;;;;;;12.58;69.69;101301.91;7382856;19;20007;-77
2022/03/10 01:59:20;;;;;;;9.02;1.92;;;;;;;12.59;69.63;101296.47;7382237;19;20010;-77
2022/03/10 02:01:49;;;;;;;9.35;4.25;;;;;;;12.57;69.22;101300.25;7384833;19;20396;-77
2022/03/10 02:04:22;;;;;;;8.45;2.75;;;;;;;12.55;69.75;101302.19;7380882;19;20471;-79
2022/03/10 02:06:49;;;;;;;4.30;1.63;;;;;;;12.53;69.47;101296.25;7385050;19;20014;-78
2022/03/10 02:12:02;;;;;;;7.22;2.40;;;;;;;12.50;69.88;101293.91;7385157;19;20018;-78
2022/03/10 02:17:20;;;;;;;7.63;3.67;;;;;;;12.46;69.27;101296.03;7385021;19;20011;-78
2022/03/10 02:19:54;;;;;;;8.23;2.67;;;;;;;12.41;69.60;101291.22;7379245;19;20129;-78
2022/03/10 02:22:22;;;;;;;12.80;6.85;;;;;;;12.39;69.93;101293.16;7383208;19;20021;-78
2022/03/10 02:24:50;;;;;;;8.05;3.40;;;;;;;12.40;71.02;101294.00;7381527;19;20027;-78
2022/03/10 02:27:26;;;;;;;6.70;2.72;;;;;;;12.36;70.24;101295.28;7383048;19;20315;-78
2022/03/10 02:29:55;;;;;;;10.07;4.43;;;;;;;12.36;70.77;101290.00;7382072;19;20082;-79
2022/03/10 02:32:22;;;;;;;8.07;2.70;;;;;;;12.33;70.59;101288.53;7382520;19;20018;-78
2022/03/10 02:34:49;;;;;;;6.25;2.78;;;;;;;12.32;70.01;101291.31;7381130;19;20087;-78
2022/03/10 02:37:18;;;;;;;7.38;2.80;;;;;;;12.34;70.68;101289.34;7379919;19;20006;-78
2022/03/10 02:39:46;;;;;;;8.10;3.08;;;;;;;12.32;69.86;101286.84;7381575;19;20436;-78
2022/03/10 02:42:14;;;;;;;10.48;3.22;;;;;;;12.31;70.70;101287.84;7380327;19;20106;-77
2022/03/10 02:44:43;;;;;;;5.93;2.78;;;;;;;12.25;70.45;101288.44;7384077;19;20031;-77
2022/03/10 02:47:10;;;;;;;6.63;3.20;;;;;;;12.23;70.42;101289.59;7381850;19;20242;-76
2022/03/10 02:49:38;;;;;;;7.50;3.15;;;;;;;12.22;70.57;101286.13;7379081;19;20382;-78
2022/03/10 02:52:06;;;;;;;6.60;3.30;;;;;;;12.20;70.48;101282.78;7381279;19;20014;-77
2022/03/10 02:54:41;;;;;;;9.45;3.53;;;;;;;12.19;70.72;101278.50;7383429;19;20014;-77
2022/03/10 02:57:08;;;;;;;8.75;4.22;;;;;;;12.17;70.60;101269.91;7381523;19;20070;-78
2022/03/10 02:59:35;;;;;;;11.00;5.15;;;;;;;12.18;72.13;101274.22;7382120;19;20479;-78
2022/03/10 03:02:04;;;;;;;6.65;2.88;;;;;;;12.19;70.90;101285.59;7382398;19;20011;-76
2022/03/10 03:04:31;;;;;;;14.05;5.03;;;;;;;12.14;71.46;101280.75;7380824;19;20022;-77
2022/03/10 03:06:59;;;;;;;8.55;4.38;;;;;;;12.13;71.47;101283.56;7380442;19;20010;-77
2022/03/10 03:09:26;;;;;;;7.60;3.55;;;;;;;12.09;70.99;101283.00;7381750;19;20499;-77
2022/03/10 03:11:58;;;;;;;10.05;3.90;;;;;;;12.05;71.76;101283.47;7379906;19;20086;-77
2022/03/10 03:14:25;;;;;;;9.02;3.85;;;;;;;12.00;71.74;101279.47;7378844;19;20086;-77
2022/03/10 03:16:54;;;;;;;10.68;4.63;;;;;;;11.99;71.55;101282.25;7380031;19;20125;-77
2022/03/10 03:19:22;;;;;;;13.30;5.32;;;;;;;11.97;72.38;101278.97;7379689;19;20033;-78
2022/03/10 03:21:55;;;;;;;10.75;3.42;;;;;;;11.96;71.46;101285.22;7379846;19;20040;-76
2022/03/10 03:24:24;;;;;;;13.25;4.30;;;;;;;11.94;71.87;101287.16;7378935;19;20065;-77
2022/03/10 03:26:51;;;;;;;8.73;3.88;;;;;;;11.95;71.87;101279.09;7381699;19;20302;-77
2022/03/10 03:29:18;;;;;;;9.70;4.65;;;;;;;11.96;71.66;101279.94;7379898;19;20024;-76
2022/03/10 03:31:51;;;;;;;15.75;5.80;;;;;;;11.95;72.79;101273.84;7381698;19;20344;-78
2022/03/10 03:34:24;;;;;;;8.93;3.97;;;;;;;11.95;72.10;101273.00;7378922;19;20511;-77
2022/03/10 03:36:51;;;;;;;11.18;5.57;;;;;;;11.90;71.79;101264.72;7378266;19;20027;-78
2022/03/10 03:39:18;;;;;;;10.90;3.80;;;;;;;11.87;71.66;101268.50;7377818;19;20131;-77
2022/03/10 03:41:47;;;;;;;9.32;4.15;;;;;;;11.84;71.36;101273.22;7381094;19;20010;-78
2022/03/10 03:44:17;;;;;;;10.93;4.45;;;;;;;11.83;71.74;101275.06;7379330;19;20010;-77
2022/03/10 03:46:44;;;;;;;13.63;4.25;;;;;;;11.83;71.55;101282.13;7380209;19;20494;-78
2022/03/10 03:49:11;;;;;;;11.25;4.35;;;;;;;11.84;71.74;101278.50;7379052;19;20032;-77
2022/03/10 03:51:38;;;;;;;9.35;4.07;;;;;;;11.84;71.41;101274.03;7379671;19;20070;-77
2022/03/10 03:54:06;;;;;;;11.85;5.32;;;;;;;11.82;71.56;101270.75;7380720;19;20074;-77
2022/03/10 03:56:37;;;;;;;10.50;4.18;;;;;;;11.81;71.76;101266.44;7381969;19;20025;-77
2022/03/10 03:59:04;;;;;;;11.27;4.32;;;;;;;11.78;71.21;101272.03;7379313;19;20042;-78
2022/03/10 04:01:32;;;;;;;11.13;4.60;;;;;;;11.79;71.48;101271.03;7379709;19;20014;-77
2022/03/10 04:04:00;;;;;;;10.10;4.70;;;;;;;11.80;72.14;101277.13;7375965;19;20024;-78
2022/03/10 04:06:27;;;;;;;12.55;6.47;;;;;;;11.78;72.32;101272.03;7382036;19;20024;-78
2022/03/10 04:08:53;;;;;;;10.52;5.30;;;;;;;11.80;72.78;101274.50;7382064;19;20014;-77
2022/03/10 04:11:20;;;;;;;16.85;8.52;;;;;;;11.77;71.79;101270.38;7378200;19;20467;-77
2022/03/10 04:13:47;;;;;;;11.27;4.75;;;;;;;11.76;73.01;101278.41;7383519;19;20010;-76
2022/03/10 04:16:16;;;;;;;9.30;4.47;;;;;;;11.76;72.81;101283.69;7379323;19;20030;-78
2022/03/10 04:18:44;;;;;;;10.07;4.60;;;;;;;11.75;72.47;101272.31;7383372;19;20030;-77
2022/03/10 04:21:11;;;;;;;11.07;4.63;;;;;;;11.72;72.73;101269.13;7385308;19;20099;-78
2022/03/10 04:23:38;;;;;;;10.95;6.03;;;;;;;11.69;72.41;101275.50;7385537;19;20011;-77
2022/03/10 04:26:05;;;;;;;11.00;4.88;;;;;;;11.69;72.74;101274.69;7384134;19;20041;-77
2022/03/10 04:28:33;;;;;;;8.68;4.53;;;;;;;11.65;72.33;101282.06;7385611;19;20082;-76
2022/03/10 04:31:01;;;;;;;12.32;6.30;;;;;;;11.66;72.61;101270.56;7389319;19;20037;-77
2022/03/10 04:33:28;;;;;;;9.52;4.38;;;;;;;11.67;72.48;101287.19;7385021;19;20608;-77
2022/03/10 04:35:56;;;;;;;17.90;6.75;;;;;;;11.66;72.85;101294.28;7387042;19;20554;-78
2022/03/10 04:38:24;;;;;;;10.70;5.25;;;;;;;11.66;73.07;101291.63;7384720;19;20011;-78
2022/03/10 04:40:51;;;;;;;9.88;4.40;;;;;;;11.64;72.54;101296.22;7386126;19;20032;-78
2022/03/10 04:43:18;;;;;;;12.23;4.78;;;;;;;11.66;72.68;101291.63;7383828;19;20021;-77
2022/03/10 04:45:46;;;;;;;10.68;5.15;;;;;;;11.65;72.43;101286.50;7386253;19;20151;-79
2022/03/10 04:48:13;;;;;;;14.35;7.55;;;;;;;11.63;72.57;101280.56;7385646;19;20513;-78
2022/03/10 04:50:40;;;;;;;12.45;4.78;;;;;;;11.67;72.57;101279.28;7383422;19;20082;-76
2022/03/10 04:53:07;;;;;;;12.32;6.70;;;;;;;11.68;72.12;101283.59;7381247;19;20017;-77
2022/03/10 04:55:35;;;;;;;10.10;4.82;;;;;;;11.69;72.98;101280.78;7389120;19;20551;-77
2022/03/10 04:58:02;;;;;;;11.20;4.85;;;;;;;11.71;72.16;101283.28;7386284;19;20049;-78
2022/03/10 05:00:29;;;;;;;17.98;7.32;;;;;;;11.73;72.52;101286.63;7386976;19;20029;-77
2022/03/10 05:02:56;;;;;;;10.35;5.07;;;;;;;11.75;73.70;101285.50;7384258;19;20293;-78
2022/03/10 05:05:28;;;;;;;13.30;6.90;;;;;;;11.76;73.07;101289.81;7388614;19;20114;-77
2022/03/10 05:07:55;;;;;;;9.55;5.18;;;;;;;11.71;72.66;101292.03;7384886;19;20388;-78
2022/03/10 05:10:22;;;;;;;14.68;5.65;;;;;;;11.70;72.40;101287.72;7385067;19;20443;-77
2022/03/10 05:12:52;;;;;;;12.25;6.90;;;;;;;11.72;72.71;101296.31;7382673;19;20420;-78
2022/03/10 05:15:30;;;;;;;11.57;5.35;;;;;;;11.71;72.27;101297.28;7385086;19;20014;-77
2022/03/10 05:17:59;;;;;;;12.40;5.57;;;;;;;11.72;72.38;101304.22;7382934;19;20023;-77
2022/03/10 05:20:28;;;;;;;12.68;4.60;;;;;;;11.69;72.51;101295.75;7383717;19;20011;-79
2022/03/10 05:22:58;;;;;;;8.02;4.53;;;;;;;11.69;72.38;101298.41;7382471;19;20015;-78
2022/03/10 05:25:38;;;;;;;12.25;5.80;;;;;;;11.63;72.89;101299.03;7384650;19;20011;-78
2022/03/10 05:28:07;;;;;;;14.02;5.43;;;;;;;11.61;72.36;101306.22;7381097;19;20014;-77
2022/03/10 05:30:37;;;;;;;13.35;6.32;;;;;;;11.60;73.32;101297.50;7386715;19;20031;-79
2022/03/10 05:33:04;;;;;;;18.42;5.75;;;;;;;11.59;73.54;101303.72;7382675;19;20082;-77
2022/03/10 05:35:31;;;;;;;11.57;5.72;;;;;;;11.59;73.69;101296.66;7385477;19;20470;-77
2022/03/10 05:37:59;;;;;;;11.57;5.00;;;;;;;11.59;73.12;101298.47;7381575;19;20360;-77
2022/03/10 05:40:26;;;;;;;14.38;7.65;;;;;;;11.57;73.02;101303.91;7381539;19;20486;-79
2022/03/10 05:42:55;;;;;;;11.38;5.63;;;;;;;11.55;73.39;101295.31;7385602;19;20010;-78
2022/03/10 05:45:28;;;;;;;13.02;5.80;;;;;;;11.57;73.53;101303.06;7383874;19;20202;-78
2022/03/10 05:47:55;;;;;;;;;;;;;;;11.53;72.99;101299.03;7382956;19;20077;-77
2022/03/10 05:50:24;;;;;;;12.85;5.80;;;;;;;11.49;73.76;101298.53;7385425;19;19986;-78
2022/03/10 05:52:51;;;;;;;12.60;5.75;;;;;;;11.49;73.39;101306.44;7381528;19;20519;-78
2022/03/10 05:55:23;;;;;;;13.70;6.13;;;;;;;11.51;73.82;101316.84;7388154;19;20070;-77
2022/03/10 05:57:55;;;;;;;12.43;5.22;;;;;;;11.53;73.21;101301.69;7387797;19;20126;-78
2022/03/10 06:00:23;;;;;;;13.32;5.75;;;;;;;11.53;73.28;101296.41;7384033;19;20463;-77
2022/03/10 06:02:50;;;;;;;14.30;6.63;;;;;;;11.53;73.30;101297.25;7382145;19;20364;-78
2022/03/10 06:05:21;;;;;;;18.00;8.20;;;;;;;11.54;73.51;101303.34;7384319;19;20103;-78
2022/03/10 06:07:53;;;;;;;13.98;5.93;;;;;;;11.56;74.06;101304.03;7383152;19;20044;-79
2022/03/10 06:10:20;;;;;;;16.98;6.03;;;;;;;11.59;73.97;101299.28;7381282;19;20014;-79
2022/03/10 06:12:49;;;;;;;17.95;7.30;;;;;;;11.65;75.43;101300.50;7386014;19;20031;-78
2022/03/10 06:15:18;;;;;;;16.90;6.30;;;;;;;11.65;75.00;101303.16;7381404;19;20087;-78
2022/03/10 06:17:52;;;;;;;17.88;6.68;;;;;;;11.69;75.55;101301.03;7381636;19;20017;-77
2022/03/10 06:20:19;;;;;;;13.30;6.45;;;;;;;11.69;76.10;101303.66;7381320;19;20013;-77
2022/03/10 06:22:46;;;;;;;15.45;7.13;;;;;;;11.67;75.85;101300.38;7382189;19;20030;-77
2022/03/10 06:25:13;;;;;;;12.85;5.82;;;;;;;11.70;76.10;101302.69;7383842;19;20078;-78
2022/03/10 06:27:40;;;;;;;17.83;6.95;;;;;;;11.70;76.17;101306.16;7384992;19;20014;-78
2022/03/10 06:30:09;;;;;;;17.08;9.55;;;;;;;11.72;76.20;101303.41;7384869;19;20041;-78
2022/03/10 06:32:36;;;;;;;13.25;5.72;;;;;;;11.73;76.34;101300.66;7383819;19;20382;-77
2022/03/10 06:35:04;;;;;;;14.00;6.78;;;;;;;11.77;76.18;101311.72;7382159;19;20070;-79
2022/03/10 06:37:31;;;;;;;13.30;6.18;;;;;;;11.78;76.10;101316.03;7385550;19;20110;-78
2022/03/10 06:39:58;;;;;;;13.65;5.93;;;;;;;11.82;75.49;101325.28;7383155;19;20581;-77
2022/03/10 06:42:24;;;;;;;15.73;7.05;;;;;;;11.83;76.25;101321.69;7383537;19;20134;-78
2022/03/10 06:44:51;;;;;;;15.35;5.80;;;;;;;11.85;76.68;101328.44;7380243;19;20014;-79
2022/03/10 06:47:18;;;;;;;11.88;5.78;;;;;;;11.88;76.91;101328.16;7380036;19;20014;-78
2022/03/10 06:49:45;;;;;;;16.63;7.22;;;;;;;11.92;77.98;101331.31;7382792;19;20341;-78
2022/03/10 06:52:15;;;;;;;20.25;10.18;;;;;;;11.91;77.43;101319.94;7381377;19;20031;-79
2022/03/10 06:54:42;;;;;;;13.23;5.90;;;;;;;11.94;77.24;101330.19;7384913;19;20015;-77
2022/03/10 06:57:10;;;;;;;14.48;7.15;;;;;;;11.92;76.52;101326.88;7383121;19;20006;-79
2022/03/10 06:59:38;;;;;;;14.68;8.00;;;;;;;11.95;76.89;101333.66;7380694;19;20014;-77
2022/03/10 07:02:05;;;;;;;14.50;6.53;;;;;;;11.94;75.97;101340.72;7386225;19;20052;-78
2022/03/10 07:04:33;;;;;;;13.65;5.97;;;;;;;11.93;75.19;101333.00;7380760;19;20324;-78
2022/03/10 07:06:59;;;;;;;18.65;7.43;;;;;;;11.96;76.11;101335.31;7383695;19;20035;-77
2022/03/10 07:09:27;;;;;;;13.82;7.43;;;;;;;11.93;75.99;101338.25;7379959;19;20077;-78
2022/03/10 07:11:58;;;;;;;17.08;6.28;;;;;;;11.95;75.94;101341.56;7384232;19;20082;-78
2022/03/10 07:14:25;;;;;;;16.35;6.63;;;;;;;11.97;76.15;101340.47;7380898;19;20027;-79
2022/03/10 07:16:52;;;;;;;17.98;7.72;;;;;;;11.95;76.12;101344.19;7382405;19;20025;-78
2022/03/10 07:19:20;;;;;;;14.18;6.47;;;;;;;11.94;75.43;101353.91;7380030;19;20039;-79
2022/03/10 07:21:47;;;;;;;19.73;7.80;;;;;;;11.97;76.01;101358.91;7380111;19;20018;-79
2022/03/10 07:24:14;;;;;;;15.38;7.00;;;;;;;11.94;75.41;101367.09;7382175;19;20027;-77
2022/03/10 07:26:41;;;;;;;17.02;7.00;;;;;;;11.93;75.06;101359.38;7381519;19;20410;-78
2022/03/10 07:29:09;;;;;;;18.98;7.90;;;;;;;11.92;75.23;101358.53;7379545;19;20484;-78
2022/03/10 07:31:36;;;;;;;17.23;8.13;;;;;;;11.91;75.10;101367.41;7379056;19;20082;-79
2022/03/10 07:34:03;;;;;;;21.80;10.00;;;;;;;11.86;75.90;101369.66;7383925;19;20014;-79
2022/03/10 07:36:30;;;;;;;19.23;8.27;;;;;;;11.85;76.14;101365.38;7380285;19;20054;-78
2022/03/10 07:38:57;;;;;;;23.20;11.68;;;;;;;11.85;75.97;101368.00;7383010;19;20022;-81
2022/03/10 07:41:24;;;;;;;18.42;8.65;;;;;;;11.80;76.71;101366.78;7381941;19;20037;-78
2022/03/10 07:43:51;;;;;;;18.35;8.70;;;;;;;11.84;76.38;101358.41;7381475;19;20018;-78
2022/03/10 07:46:22;;;;;;;19.15;9.38;;;;;;;11.89;76.69;101365.88;7378907;19;20018;-78
2022/03/10 07:48:53;;;;;;;18.75;8.88;;;;;;;11.88;76.19;101365.09;7378147;19;20006;-79
2022/03/10 07:51:20;;;;;;;18.33;9.70;;;;;;;12.06;75.96;101359.81;7384918;19;20020;-79
2022/03/10 07:53:47;;;;;;;17.20;7.38;;;;;;;12.28;74.57;101366.47;7391308;19;20055;-79
2022/03/10 07:56:15;;;;;;;21.38;9.82;;;;;;;12.55;74.57;101354.97;7389756;19;20014;-77
2022/03/10 07:58:42;;;;;;;21.90;11.55;;;;;;;12.67;74.30;101361.69;7389255;19;20010;-79
2022/03/10 08:01:09;;;;;;;21.90;10.98;;;;;;;12.71;74.27;101369.16;7392377;19;20018;-77
2022/03/10 08:03:38;;;;;;;19.08;9.45;;;;;;;12.74;73.60;101363.59;7389380;19;20029;-79
2022/03/10 08:06:06;;;;;;;20.15;10.02;;;;;;;12.79;73.62;101365.75;7392118;19;20010;-80
2022/03/10 08:08:34;;;;;;;18.67;8.95;;;;;;;12.84;73.21;101363.50;7389561;19;20074;-79
2022/03/10 08:11:03;;;;;;;16.40;7.47;;;;;;;12.90;74.59;101368.13;7386984;19;20007;-78
2022/03/10 08:13:31;;;;;;;15.80;7.20;;;;;;;12.99;75.52;101363.75;7389292;19;20053;-79
2022/03/10 08:15:59;;;;;;;22.67;14.43;;;;;;;13.01;75.44;101367.03;7388641;19;20349;-79
2022/03/10 08:18:27;;;;;;;20.00;10.73;;;;;;;13.05;74.73;101363.13;7387189;19;20038;-78
2022/03/10 08:20:57;;;;;;;18.58;9.07;;;;;;;13.04;73.39;101366.75;7392249;19;20101;-79
2022/03/10 08:23:26;;;;;;;20.35;10.50;;;;;;;13.04;73.36;101364.94;7390538;19;20017;-80
2022/03/10 08:25:53;;;;;;;18.38;8.98;;;;;;;13.06;72.88;101376.16;7391390;19;20321;-79
2022/03/10 08:28:20;;;;;;;17.85;7.68;;;;;;;12.99;72.69;101369.03;7390281;19;20451;-79
2022/03/10 08:30:47;;;;;;;18.00;9.23;;;;;;;13.00;72.97;101371.53;7391424;19;20479;-78
2022/03/10 08:33:14;;;;;;;17.13;9.38;;;;;;;13.03;72.79;101370.38;7380845;19;20017;-78
2022/03/10 08:35:42;;;;;;;13.38;6.68;;;;;;;13.04;72.34;101366.75;7387797;19;20014;-78
2022/03/10 08:38:09;;;;;;;18.80;8.75;;;;;;;13.01;72.29;101367.03;7392648;19;20022;-78
2022/03/10 08:40:36;;;;;;;18.27;7.85;;;;;;;12.99;71.90;101364.59;7390443;19;20053;-78
2022/03/10 08:43:05;;;;;;;15.48;8.25;;;;;;;13.04;72.20;101367.59;7387548;19;20105;-79
2022/03/10 08:45:32;;;;;;;18.42;7.38;;;;;;;13.12;72.55;101375.59;7394771;19;20305;-78
2022/03/10 08:47:59;;;;;;;14.18;7.25;;;;;;;13.07;71.72;101363.78;7392904;19;20028;-78
2022/03/10 08:50:26;;;;;;;14.68;6.97;;;;;;;13.11;71.86;101366.00;7394118;19;20047;-79
2022/03/10 08:52:53;;;;;;;19.20;8.30;;;;;;;13.19;72.60;101365.22;7391308;19;20007;-78
2022/03/10 08:55:27;;;;;;;21.80;11.10;;;;;;;13.17;71.29;101362.72;7397028;19;20010;-80
2022/03/10 08:57:55;;;;;;;17.30;7.18;;;;;;;13.24;72.19;101366.41;7394160;19;20018;-80
2022/03/10 09:00:22;;;;;;;15.45;8.05;;;;;;;13.29;71.42;101363.31;7396784;19;20037;-78
2022/03/10 09:02:56;;;;;;;15.75;6.65;;;;;;;13.37;72.47;101359.84;7391552;19;20019;-82
2022/03/10 09:05:28;;;;;;;15.75;8.05;;;;;;;13.39;71.24;101360.53;7385571;19;20015;-79
2022/03/10 09:07:55;;;;;;;16.52;8.20;;;;;;;13.43;72.34;101354.78;7389654;19;20006;-80
2022/03/10 09:10:24;;;;;;;15.27;7.88;;;;;;;13.44;71.42;101348.50;7391077;19;20642;-78
2022/03/10 09:12:51;;;;;;;13.02;6.72;;;;;;;13.48;70.67;101357.78;7394361;19;20341;-80
2022/03/10 09:15:22;;;;;;;14.98;8.55;;;;;;;13.54;71.00;101362.44;7389285;19;20014;-79
2022/03/10 09:17:54;;;;;;;17.40;8.00;;;;;;;13.58;71.12;101358.47;7383091;19;20010;-81
2022/03/10 09:20:21;;;;;;;17.88;7.40;;;;;;;13.65;71.20;101363.97;7383665;19;20320;-78
2022/03/10 09:22:49;;;;;;;12.10;6.90;;;;;;;13.70;70.44;101372.25;7384329;19;20394;-78
2022/03/10 09:25:19;;;;;;;13.52;7.88;;;;;;;13.77;70.31;101372.41;7382112;19;20010;-78
2022/03/10 09:27:51;;;;;;;14.25;5.97;;;;;;;13.86;70.17;101367.03;7379640;19;20536;-78
2022/03/10 09:30:19;;;;;;;10.55;4.97;;;;;;;13.89;69.24;101361.41;7384848;19;20452;-80
2022/03/10 09:32:46;;;;;;;11.57;5.97;;;;;;;14.00;69.40;101355.81;7382493;19;20330;-79
2022/03/10 09:35:16;;;;;;;12.27;5.68;;;;;;;14.07;69.31;101367.38;7382930;19;20014;-79
2022/03/10 09:37:45;;;;;;;13.35;4.88;;;;;;;14.13;68.86;101365.91;7386284;19;20030;-78
2022/03/10 09:40:13;;;;;;;15.18;6.18;;;;;;;14.19;70.08;101362.63;7387368;19;20611;-78
2022/03/10 09:42:42;;;;;;;10.50;4.97;;;;;;;14.27;68.99;101351.22;7391205;19;20369;-79
2022/03/10 09:45:10;;;;;;;10.13;4.68;;;;;;;14.31;68.38;101352.56;7389740;19;20194;-78
2022/03/10 09:47:39;;;;;;;10.50;4.55;;;;;;;14.38;67.90;101340.31;7386321;19;20015;-79
2022/03/10 09:50:10;;;;;;;10.52;5.90;;;;;;;14.50;68.69;101352.25;7385400;19;20011;-78
2022/03/10 09:52:38;;;;;;;12.13;5.22;;;;;;;14.60;68.36;101352.91;7383890;19;20409;-79
2022/03/10 09:55:07;;;;;;;12.48;5.15;;;;;;;14.71;68.40;101357.88;7386628;19;20584;-79
2022/03/10 09:57:37;;;;;;;12.20;5.35;;;;;;;14.75;67.04;101353.06;7382857;19;20341;-79
2022/03/10 10:00:06;;;;;;;23.13;12.02;;;;;;;14.86;67.49;101358.03;7389951;19;20408;-78
2022/03/10 10:02:33;;;;;;;12.60;5.70;;;;;;;14.93;66.67;101343.13;7381342;19;20033;-78
2022/03/10 10:05:00;;;;;;;10.32;4.25;;;;;;;14.96;66.52;101340.13;7355223;19;20017;-79
2022/03/10 10:07:28;;;;;;;10.82;5.03;;;;;;;14.95;66.32;101341.13;7375198;19;20074;-78
2022/03/10 10:09:58;;;;;;;10.23;4.03;;;;;;;14.94;65.99;101347.41;7382482;19;20090;-78
2022/03/10 10:12:29;;;;;;;8.07;3.88;;;;;;;14.94;65.92;101342.94;7386526;19;20070;-80
2022/03/10 10:14:57;;;;;;;8.27;4.32;;;;;;;14.97;66.61;101333.84;7388254;19;20023;-81
2022/03/10 10:17:32;;;;;;;16.25;4.40;;;;;;;14.95;65.37;101335.81;7381883;19;20417;-79
2022/03/10 10:20:19;;;;;;;12.55;4.30;;;;;;;14.96;66.82;101343.63;7379958;19;20018;-79
2022/03/10 10:22:48;;;;;;;9.05;3.78;;;;;;;14.98;66.07;101346.91;7382539;19;20088;-78
2022/03/10 10:25:27;;;;;;;8.05;3.55;;;;;;;15.03;65.69;101335.00;7384302;19;20014;-78
2022/03/10 10:28:27;;;;;;;8.68;3.60;;;;;;;15.02;66.03;101334.16;7381148;19;20313;-78
2022/03/10 10:30:57;;;;;;;8.57;3.80;;;;;;;15.03;65.81;101335.00;7384243;19;20073;-79
2022/03/10 10:33:24;;;;;;;7.43;3.10;;;;;;;15.01;66.04;101331.69;7384999;19;20051;-79
2022/03/10 10:36:10;;;;;;;5.60;2.80;;;;;;;15.06;65.73;101327.53;7383397;19;20134;-79
2022/03/10 10:38:38;;;;;;;11.68;5.10;;;;;;;15.12;66.15;101331.31;7386362;19;20082;-78
2022/03/10 10:41:18;;;;;;;11.55;3.78;;;;;;;15.14;65.59;101331.97;7387711;19;20453;-79
2022/03/10 10:43:49;;;;;;;9.68;3.42;;;;;;;15.14;65.35;101337.25;7387700;19;20019;-78
2022/03/10 10:46:31;;;;;;;5.32;2.88;;;;;;;15.13;65.20;101341.78;7387230;19;20014;-78
2022/03/10 10:49:08;;;;;;;11.05;5.97;;;;;;;15.12;65.59;101333.97;7381980;19;20007;-79
2022/03/10 10:51:38;;;;;;;15.75;5.43;;;;;;;15.09;65.20;101334.28;7382644;19;20033;-79
2022/03/10 10:54:24;;;;;;;6.43;3.00;;;;;;;15.04;64.98;101332.16;7384262;19;20330;-78
2022/03/10 10:56:55;;;;;;;9.85;3.15;;;;;;;15.02;65.93;101323.56;7380645;19;20103;-78
2022/03/10 10:59:30;;;;;;;9.02;3.15;;;;;;;15.01;66.49;101327.22;7383508;19;20110;-78
2022/03/10 11:02:10;;;;;;;8.50;4.00;;;;;;;15.04;66.93;101324.19;7380036;19;20026;-80
2022/03/10 11:04:48;;;;;;;6.18;2.42;;;;;;;15.11;66.27;101321.72;7380627;19;20343;-77
2022/03/10 11:07:18;;;;;;;8.23;4.47;;;;;;;15.16;66.21;101325.50;7378828;19;20002;-80
2022/03/10 11:09:47;;;;;;;7.70;3.00;;;;;;;15.19;65.78;101316.38;7383924;19;20121;-78
2022/03/10 11:12:16;;;;;;;8.90;3.13;;;;;;;15.31;66.36;101321.16;7384942;19;20062;-79
2022/03/10 11:14:45;;;;;;;10.75;3.22;;;;;;;15.42;66.33;101314.66;7385250;19;20022;-79
2022/03/10 11:17:14;;;;;;;9.32;3.13;;;;;;;15.44;65.38;101314.50;7382366;19;20006;-78
2022/03/10 11:19:46;;;;;;;12.02;3.33;;;;;;;15.52;65.37;101310.00;7379494;19;20034;-80
2022/03/10 11:22:34;;;;;;;11.85;2.75;;;;;;;15.62;66.51;101312.44;7383888;19;20011;-78
2022/03/10 11:25:18;;;;;;;8.40;2.63;;;;;;;15.61;64.85;101308.94;7383251;19;20030;-78
2022/03/10 11:28:04;;;;;;;8.35;2.35;;;;;;;15.58;65.21;101295.22;7389579;19;20007;-79
2022/03/10 11:30:33;;;;;;;9.80;2.60;;;;;;;15.51;65.03;101303.03;7395001;19;20062;-79
2022/03/10 11:33:06;;;;;;;5.47;2.25;;;;;;;15.43;65.31;101294.25;7390721;19;20276;-79